createdAt,value
2018-04-23T00:00:59.532Z,6.70
2018-04-23T00:03:27.064Z,7.47
2018-04-23T00:05:55.383Z,5.80
2018-04-23T00:08:22.915Z,6.20
2018-04-23T00:10:51.228Z,6.40
2018-04-23T00:13:18.760Z,6.60
2018-04-23T00:15:46.293Z,6.57
2018-04-23T00:18:13.848Z,6.87
2018-04-23T00:20:41.376Z,6.33
2018-04-23T00:23:08.940Z,6.30
2018-04-23T00:25:36.472Z,6.23
2018-04-23T00:28:04.028Z,6.07
2018-04-23T00:30:31.553Z,6.60
2018-04-23T00:32:59.118Z,6.57
2018-04-23T00:35:27.412Z,6.33
2018-04-23T00:37:55.733Z,6.87
2018-04-23T00:40:23.253Z,6.33
2018-04-23T00:42:50.811Z,6.27
2018-04-23T00:45:18.344Z,5.33
2018-04-23T00:47:45.901Z,5.90
2018-04-23T00:50:13.428Z,6.53
2018-04-23T00:52:40.976Z,6.83
2018-04-23T00:55:08.505Z,6.80
2018-04-23T00:57:36.829Z,7.03
2018-04-23T01:00:04.358Z,6.60
2018-04-23T01:02:31.912Z,6.57
2018-04-23T01:04:59.438Z,6.20
2018-04-23T01:07:43.552Z,6.70
2018-04-23T01:10:11.072Z,6.57
2018-04-23T01:12:38.606Z,7.00
2018-04-23T01:15:06.158Z,6.60
2018-04-23T01:17:33.689Z,6.93
2018-04-23T01:20:01.236Z,7.23
2018-04-23T01:22:28.760Z,8.00
2018-04-23T01:24:57.078Z,6.57
2018-04-23T01:27:24.603Z,7.80
2018-04-23T01:29:52.912Z,7.07
2018-04-23T01:32:20.437Z,6.47
2018-04-23T01:34:52.429Z,6.77
2018-04-23T01:37:19.956Z,7.63
2018-04-23T01:39:48.277Z,7.07
2018-04-23T01:42:15.805Z,7.90
2018-04-23T01:44:43.357Z,7.73
2018-04-23T01:47:11.665Z,7.57
2018-04-23T01:49:39.216Z,7.57
2018-04-23T01:52:06.745Z,6.83
2018-04-23T01:54:35.062Z,6.40
2018-04-23T01:57:02.596Z,6.87
2018-04-23T01:59:30.148Z,6.50
2018-04-23T02:01:58.443Z,7.37
2018-04-23T02:04:25.990Z,7.23
2018-04-23T02:06:53.548Z,6.73
2018-04-23T02:09:21.832Z,5.90
2018-04-23T02:11:49.389Z,6.33
2018-04-23T02:14:17.681Z,6.70
2018-04-23T02:16:45.238Z,5.87
2018-04-23T02:19:12.764Z,6.20
2018-04-23T02:21:40.321Z,6.10
2018-04-23T02:24:07.850Z,6.20
2018-04-23T02:26:36.173Z,7.03
2018-04-23T02:29:04.466Z,6.47
2018-04-23T02:31:32.020Z,6.50
2018-04-23T02:33:59.565Z,7.53
2018-04-23T02:36:27.894Z,5.97
2018-04-23T02:38:55.422Z,7.00
2018-04-23T02:41:22.972Z,6.20
2018-04-23T02:43:51.260Z,6.87
2018-04-23T02:46:18.807Z,6.93
2018-04-23T02:48:47.105Z,6.30
2018-04-23T02:51:14.659Z,6.60
2018-04-23T02:53:42.184Z,5.90
2018-04-23T02:56:09.741Z,6.47
2018-04-23T02:58:38.052Z,6.27
2018-04-23T03:01:05.596Z,6.80
2018-04-23T03:03:33.913Z,6.10
2018-04-23T03:06:01.460Z,6.10
2018-04-23T03:08:28.984Z,6.53
2018-04-23T03:10:57.322Z,6.90
2018-04-23T03:13:24.854Z,6.87
2018-04-23T03:15:52.408Z,6.33
2018-04-23T03:18:19.944Z,6.83
2018-04-23T03:20:48.281Z,7.07
2018-04-23T03:23:15.814Z,6.77
2018-04-23T03:25:43.362Z,7.70
2018-04-23T03:28:10.897Z,6.33
2018-04-23T03:30:38.457Z,7.27
2018-04-23T03:33:05.989Z,7.90
2018-04-23T03:35:33.544Z,7.53
2018-04-23T03:38:01.079Z,7.20
2018-04-23T03:40:28.639Z,8.70
2018-04-23T03:42:56.161Z,7.77
2018-04-23T03:45:24.482Z,8.83
2018-04-23T03:47:52.010Z,8.53
2018-04-23T03:50:20.333Z,8.50
2018-04-23T03:52:47.857Z,9.17
2018-04-23T03:55:15.385Z,9.23
2018-04-23T03:57:42.958Z,8.80
2018-04-23T04:00:11.252Z,9.20
2018-04-23T04:02:38.809Z,8.83
2018-04-23T04:05:07.097Z,8.80
2018-04-23T04:07:34.649Z,8.20
2018-04-23T04:10:02.189Z,10.07
2018-04-23T04:12:42.265Z,9.63
2018-04-23T04:15:21.713Z,9.67
2018-04-23T04:21:02.249Z,10.07
2018-04-23T04:23:29.787Z,9.70
2018-04-23T04:25:57.397Z,11.17
2018-04-23T04:28:24.951Z,11.10
2018-04-23T04:30:53.273Z,11.90
2018-04-23T04:33:20.809Z,12.57
2018-04-23T04:35:48.365Z,12.23
2018-04-23T04:38:16.695Z,12.10
2018-04-23T04:40:44.252Z,12.63
2018-04-23T04:43:11.787Z,11.40
2018-04-23T04:45:39.321Z,12.10
2018-04-23T04:48:06.876Z,11.33
2018-04-23T04:50:35.170Z,10.97
2018-04-23T04:53:02.717Z,11.50
2018-04-23T04:55:30.253Z,12.27
2018-04-23T04:57:57.809Z,12.50
2018-04-23T05:00:26.117Z,11.80
2018-04-23T05:02:53.676Z,12.20
2018-04-23T05:05:21.210Z,12.40
2018-04-23T05:07:49.542Z,13.53
2018-04-23T05:10:17.073Z,12.17
2018-04-23T05:12:44.627Z,11.90
2018-04-23T05:15:12.921Z,12.27
2018-04-23T05:17:40.470Z,13.17
2018-04-23T05:20:08.000Z,13.73
2018-04-23T05:22:35.555Z,14.20
2018-04-23T05:25:03.085Z,12.67
2018-04-23T05:27:30.645Z,12.27
2018-04-23T05:29:58.189Z,11.50
2018-04-23T05:32:25.753Z,12.63
2018-04-23T05:34:53.273Z,12.60
2018-04-23T05:37:21.593Z,13.00
2018-04-23T05:39:49.130Z,11.93
2018-04-23T05:42:16.689Z,12.70
2018-04-23T05:44:44.216Z,13.13
2018-04-23T05:47:11.763Z,13.03
2018-04-23T05:49:40.064Z,13.50
2018-04-23T05:52:08.384Z,13.10
2018-04-23T05:54:35.920Z,13.83
2018-04-23T05:57:03.484Z,14.47
2018-04-23T05:59:31.019Z,14.30
2018-04-23T06:01:59.341Z,15.23
2018-04-23T06:04:26.872Z,16.10
2018-04-23T06:06:55.194Z,14.97
2018-04-23T06:09:22.716Z,15.73
2018-04-23T06:11:50.281Z,16.77
2018-04-23T06:14:17.827Z,15.30
2018-04-23T06:16:45.392Z,20.30
2018-04-23T06:19:12.930Z,14.63
2018-04-23T06:21:41.251Z,16.40
2018-04-23T06:24:08.788Z,13.30
2018-04-23T06:26:36.346Z,15.70
2018-04-23T06:29:03.876Z,23.33
2018-04-23T06:51:26.351Z,13.67
2018-04-23T06:53:53.888Z,13.80
2018-04-23T06:56:21.458Z,13.13
2018-04-23T06:58:48.996Z,12.43
2018-04-23T07:01:16.562Z,12.30
2018-04-23T07:03:44.097Z,12.70
2018-04-23T07:06:11.637Z,10.97
2018-04-23T07:08:39.972Z,10.77
2018-04-23T07:11:07.505Z,11.03
2018-04-23T07:13:35.065Z,11.97
2018-04-23T07:16:02.601Z,11.93
2018-04-23T07:18:30.933Z,12.43
2018-04-23T07:20:58.469Z,11.50
2018-04-23T07:23:26.080Z,11.77
2018-04-23T07:25:54.391Z,11.50
2018-04-23T07:28:21.963Z,11.17
2018-04-23T07:30:49.502Z,10.60
2018-04-23T07:33:17.061Z,11.60
2018-04-23T07:35:44.596Z,11.60
2018-04-23T07:38:12.926Z,12.27
2018-04-23T07:40:40.469Z,11.07
2018-04-23T07:43:08.048Z,11.73
2018-04-23T07:45:35.590Z,9.73
2018-04-23T07:48:03.148Z,11.50
2018-04-23T07:50:30.680Z,10.67
2018-04-23T07:52:58.996Z,9.67
2018-04-23T07:55:26.529Z,11.37
2018-04-23T07:57:54.852Z,10.60
2018-04-23T08:00:22.383Z,11.10
2018-04-23T08:02:49.937Z,10.20
2018-04-23T08:05:17.469Z,10.17
2018-04-23T08:07:45.792Z,11.87
2018-04-23T08:10:13.325Z,11.27
2018-04-23T08:12:40.881Z,11.27
2018-04-23T08:15:09.181Z,11.30
2018-04-23T08:17:36.741Z,10.23
2018-04-23T08:20:04.274Z,10.93
2018-04-23T08:22:32.593Z,11.07
2018-04-23T08:25:00.125Z,9.70
2018-04-23T08:27:27.677Z,12.00
2018-04-23T08:29:55.986Z,10.80
2018-04-23T08:32:23.548Z,10.07
2018-04-23T08:34:51.076Z,10.57
2018-04-23T08:37:18.637Z,9.53
2018-04-23T08:39:46.169Z,10.17
2018-04-23T08:42:13.735Z,9.27
2018-04-23T08:44:42.033Z,9.53
2018-04-23T08:47:09.597Z,10.10
2018-04-23T08:49:37.139Z,9.40
2018-04-23T08:52:04.688Z,11.43
2018-04-23T08:54:32.246Z,10.60
2018-04-23T08:56:59.773Z,9.53
2018-04-23T08:59:27.329Z,9.10
2018-04-23T09:01:54.860Z,10.10
2018-04-23T09:04:22.414Z,9.40
2018-04-23T09:06:49.949Z,9.43
2018-04-23T09:09:18.273Z,10.27
2018-04-23T09:11:45.848Z,10.10
2018-04-23T09:14:13.384Z,9.30
2018-04-23T09:16:40.920Z,9.23
2018-04-23T09:19:09.233Z,9.70
2018-04-23T09:21:36.766Z,11.47
2018-04-23T09:24:04.317Z,8.90
2018-04-23T09:26:32.608Z,9.07
2018-04-23T09:29:00.160Z,10.20
2018-04-23T09:31:28.463Z,10.10
2018-04-23T09:33:56.012Z,9.17
2018-04-23T09:36:23.539Z,9.43
2018-04-23T09:38:51.860Z,9.00
2018-04-23T09:41:19.402Z,8.90
2018-04-23T09:43:46.941Z,9.33
2018-04-23T09:46:15.255Z,9.70
2018-04-23T09:48:42.780Z,9.33
2018-04-23T09:51:11.103Z,8.30
2018-04-23T09:53:38.642Z,8.83
2018-04-23T09:56:06.202Z,9.97
2018-04-23T09:58:33.761Z,9.80
2018-04-23T10:01:01.310Z,7.97
2018-04-23T10:03:35.447Z,8.97
2018-04-23T10:06:03.070Z,7.20
2018-04-23T10:08:30.564Z,10.53
2018-04-23T10:10:58.120Z,8.57
2018-04-23T10:13:25.649Z,8.73
2018-04-23T10:15:53.976Z,10.23
2018-04-23T10:18:21.505Z,9.50
2018-04-23T10:20:49.065Z,38.97
2018-04-23T10:23:16.607Z,11.40
2018-04-23T10:25:44.928Z,14.40
2018-04-23T10:28:12.461Z,12.00
2018-04-23T10:30:40.028Z,10.53
2018-04-23T10:33:07.581Z,8.47
2018-04-23T10:35:35.143Z,9.57
2018-04-23T10:38:02.673Z,9.07
2018-04-23T10:40:30.232Z,9.97
2018-04-23T10:42:57.761Z,9.77
2018-04-23T10:45:26.131Z,9.80
2018-04-23T10:47:54.412Z,9.43
2018-04-23T10:50:21.937Z,9.37
2018-04-23T10:52:49.497Z,8.87
2018-04-23T10:55:17.029Z,9.00
2018-04-23T10:57:44.584Z,10.10
2018-04-23T11:00:12.112Z,10.27
2018-04-23T11:02:39.670Z,9.33
2018-04-23T11:05:07.202Z,9.73
2018-04-23T11:07:34.761Z,10.37
2018-04-23T11:10:02.300Z,10.30
2018-04-23T11:12:30.625Z,9.73
2018-04-23T11:14:58.144Z,9.30
2018-04-23T11:17:25.720Z,9.57
2018-04-23T11:19:53.253Z,8.60
2018-04-23T11:22:21.575Z,8.80
2018-04-23T11:24:49.123Z,9.73
2018-04-23T11:27:16.679Z,8.87
2018-04-23T11:29:44.200Z,9.50
2018-04-23T11:32:11.729Z,9.67
2018-04-23T11:34:39.284Z,10.10
2018-04-23T11:37:06.810Z,8.53
2018-04-23T11:39:34.365Z,9.97
2018-04-23T11:42:01.908Z,10.37
2018-04-23T11:44:30.229Z,9.60
2018-04-23T11:46:57.760Z,9.80
2018-04-23T11:49:25.324Z,10.10
2018-04-23T11:51:52.852Z,10.60
2018-04-23T11:54:20.412Z,10.53
2018-04-23T11:56:47.944Z,10.37
2018-04-23T11:59:15.506Z,9.90
2018-04-23T12:01:43.058Z,10.10
2018-04-23T12:04:10.617Z,10.70
2018-04-23T12:06:38.145Z,11.03
2018-04-23T12:09:06.453Z,10.07
2018-04-23T12:11:33.984Z,10.17
2018-04-23T12:14:01.577Z,10.43
2018-04-23T12:16:29.881Z,9.47
2018-04-23T12:18:57.441Z,10.00
2018-04-23T12:21:24.970Z,9.33
2018-04-23T12:23:52.516Z,10.87
2018-04-23T12:26:20.045Z,10.07
2018-04-23T12:28:48.365Z,9.30
2018-04-23T12:31:15.929Z,10.33
2018-04-23T12:33:43.491Z,9.90
2018-04-23T12:36:11.015Z,9.60
2018-04-23T12:38:38.565Z,8.93
2018-04-23T12:41:06.862Z,9.13
2018-04-23T12:43:34.413Z,8.03
2018-04-23T12:46:01.953Z,9.07
2018-04-23T12:48:30.285Z,7.30
2018-04-23T12:50:57.866Z,8.03
2018-04-23T12:53:25.392Z,8.27
2018-04-23T12:55:52.924Z,8.00
2018-04-23T12:58:20.472Z,7.47
2018-04-23T13:00:48.772Z,8.40
2018-04-23T13:03:16.325Z,7.50
2018-04-23T13:05:43.853Z,6.77
2018-04-23T13:08:11.409Z,7.37
2018-04-23T13:10:38.983Z,6.40
2018-04-23T13:13:07.303Z,6.60
2018-04-23T13:15:34.829Z,6.80
2018-04-23T13:18:03.153Z,9.03
2018-04-23T13:20:30.673Z,8.73
2018-04-23T13:22:58.228Z,7.33
2018-04-23T13:25:25.776Z,6.77
2018-04-23T13:27:54.110Z,16.83
2018-04-23T13:30:21.638Z,6.23
2018-04-23T13:32:49.192Z,9.30
2018-04-23T13:35:16.721Z,7.33
2018-04-23T13:37:44.249Z,6.30
2018-04-23T13:40:11.805Z,7.60
2018-04-23T13:42:39.356Z,6.07
2018-04-23T13:45:06.901Z,5.97
2018-04-23T13:47:34.424Z,6.80
2018-04-23T13:50:02.754Z,6.27
2018-04-23T13:52:30.288Z,6.63
2018-04-23T13:54:57.851Z,8.50
2018-04-23T13:57:25.378Z,7.80
2018-04-23T13:59:52.932Z,8.73
2018-04-23T14:02:20.466Z,9.13
2018-04-23T14:04:48.026Z,9.50
2018-04-23T14:07:15.557Z,7.60
2018-04-23T14:09:43.110Z,9.40
2018-04-23T14:12:10.632Z,7.13
2018-04-23T14:14:38.187Z,7.33
2018-04-23T14:17:05.709Z,7.10
2018-04-23T14:19:33.263Z,8.97
2018-04-23T14:22:00.789Z,7.77
2018-04-23T14:24:29.116Z,6.57
2018-04-23T14:26:56.669Z,6.00
2018-04-23T14:29:24.228Z,6.90
2018-04-23T14:31:51.759Z,6.23
2018-04-23T14:34:19.312Z,7.30
2018-04-23T14:36:47.609Z,6.47
2018-04-23T14:39:15.165Z,6.50
2018-04-23T14:41:42.693Z,6.43
2018-04-23T14:44:11.013Z,5.93
2018-04-23T14:46:38.542Z,6.10
2018-04-23T14:49:06.866Z,5.90
2018-04-23T14:51:34.394Z,6.70
2018-04-23T14:54:01.948Z,5.70
2018-04-23T14:56:29.477Z,6.67
2018-04-23T14:58:57.033Z,6.30
2018-04-23T15:01:24.565Z,7.50
2018-04-23T15:03:52.125Z,6.27
2018-04-23T15:06:19.663Z,6.33
2018-04-23T15:08:47.217Z,6.80
2018-04-23T15:11:14.749Z,7.47
2018-04-23T15:13:43.069Z,6.60
2018-04-23T15:16:10.595Z,6.03
2018-04-23T15:18:38.918Z,6.80
2018-04-23T15:21:06.445Z,6.70
2018-04-23T15:23:34.000Z,7.13
2018-04-23T15:26:01.526Z,5.87
2018-04-23T15:28:29.081Z,5.70
2018-04-23T15:30:56.612Z,6.07
2018-04-23T15:33:24.173Z,6.50
2018-04-23T15:35:51.716Z,6.17
2018-04-23T15:38:19.278Z,6.27
2018-04-23T15:40:46.801Z,5.93
2018-04-23T15:43:15.119Z,5.17
2018-04-23T15:45:42.663Z,6.17
2018-04-23T15:48:10.184Z,5.70
2018-04-23T15:50:38.529Z,5.60
2018-04-23T15:53:06.061Z,5.73
2018-04-23T15:55:33.612Z,6.23
2018-04-23T15:58:01.145Z,5.27
2018-04-23T16:00:28.697Z,5.43
2018-04-23T16:02:56.229Z,5.47
2018-04-23T16:05:23.876Z,4.87
2018-04-23T16:07:51.409Z,5.00
2018-04-23T16:10:18.958Z,5.80
2018-04-23T16:12:47.245Z,5.20
2018-04-23T16:15:14.799Z,5.00
2018-04-23T16:17:43.097Z,5.73
2018-04-23T16:20:10.649Z,5.40
2018-04-23T16:22:38.172Z,5.33
2018-04-23T16:25:05.725Z,5.20
2018-04-23T16:27:33.255Z,5.60
2018-04-23T16:30:00.847Z,5.30
2018-04-23T16:32:28.359Z,5.10
2018-04-23T16:34:55.914Z,5.23
2018-04-23T16:37:23.441Z,6.07
2018-04-23T16:39:51.825Z,6.23
2018-04-23T16:42:19.309Z,5.53
2018-04-23T16:44:50.542Z,5.97
2018-04-23T16:47:14.393Z,5.80
2018-04-23T16:49:42.722Z,6.40
2018-04-23T16:52:10.257Z,6.37
2018-04-23T16:54:37.818Z,6.60
2018-04-23T16:57:05.352Z,5.70
2018-04-23T16:59:33.670Z,6.47
2018-04-23T17:02:01.201Z,6.20
2018-04-23T17:04:29.525Z,6.30
2018-04-23T17:06:57.055Z,5.80
2018-04-23T17:09:24.621Z,6.50
2018-04-23T17:11:52.158Z,6.03
2018-04-23T17:14:20.485Z,5.97
2018-04-23T17:16:48.013Z,6.17
2018-04-23T17:19:15.566Z,7.00
2018-04-23T17:21:43.859Z,6.27
2018-04-23T17:24:11.409Z,6.30
2018-04-23T17:26:38.940Z,6.17
2018-04-23T17:29:07.252Z,6.50
2018-04-23T17:31:34.782Z,7.20
2018-04-23T17:34:03.093Z,6.03
2018-04-23T17:36:30.616Z,5.37
2018-04-23T17:38:58.940Z,6.47
2018-04-23T17:41:26.472Z,6.80
2018-04-23T17:43:54.785Z,6.50
2018-04-23T17:46:22.318Z,6.03
2018-04-23T17:48:49.874Z,6.30
2018-04-23T17:51:17.419Z,7.13
2018-04-23T17:53:45.713Z,7.03
2018-04-23T17:56:13.261Z,6.73
2018-04-23T17:58:41.557Z,6.50
2018-04-23T18:01:09.109Z,7.00
2018-04-23T18:03:36.645Z,7.50
2018-04-23T18:06:04.960Z,6.90
2018-04-23T18:08:32.492Z,6.20
2018-04-23T18:11:00.820Z,6.30
2018-04-23T18:13:29.116Z,6.37
2018-04-23T18:15:56.665Z,6.33
2018-04-23T18:18:24.187Z,7.37
2018-04-23T18:20:51.735Z,7.10
2018-04-23T18:23:19.270Z,7.20
2018-04-23T18:25:47.588Z,6.60
2018-04-23T18:28:15.115Z,7.70
2018-04-23T18:30:43.433Z,6.60
2018-04-23T18:33:10.962Z,6.63
2018-04-23T18:35:39.288Z,7.60
2018-04-23T18:38:07.579Z,6.17
2018-04-23T18:40:35.123Z,5.80
2018-04-23T18:43:02.650Z,7.30
2018-04-23T18:45:30.205Z,6.77
2018-04-23T18:47:57.738Z,6.40
2018-04-23T18:50:25.292Z,6.80
2018-04-23T18:52:52.820Z,6.80
2018-04-23T18:55:20.373Z,6.13
2018-04-23T18:57:47.897Z,6.60
2018-04-23T19:00:16.216Z,6.80
2018-04-23T19:02:43.745Z,6.90
2018-04-23T19:05:11.304Z,6.60
2018-04-23T19:07:38.832Z,6.30
2018-04-23T19:10:07.162Z,6.70
2018-04-23T19:12:34.685Z,6.00
2018-04-23T19:15:02.997Z,5.90
2018-04-23T19:17:30.516Z,6.57
2018-04-23T19:19:58.838Z,7.30
2018-04-23T19:22:26.388Z,7.10
2018-04-23T19:24:53.947Z,7.10
2018-04-23T19:27:21.556Z,8.33
2018-04-23T19:29:49.052Z,7.03
2018-04-23T19:32:16.581Z,6.70
2018-04-23T19:34:44.143Z,7.97
2018-04-23T19:37:11.664Z,6.60
2018-04-23T19:39:39.214Z,7.50
2018-04-23T19:42:06.742Z,7.83
2018-04-23T19:44:35.052Z,6.03
2018-04-23T19:47:02.589Z,8.37
2018-04-23T19:49:30.145Z,8.30
2018-04-23T19:51:57.670Z,6.77
2018-04-23T19:54:25.225Z,8.17
2018-04-23T19:56:52.753Z,7.97
2018-04-23T19:59:20.299Z,7.10
2018-04-23T20:01:47.821Z,7.80
2018-04-23T20:04:16.132Z,8.20
2018-04-23T20:06:43.763Z,6.77
2018-04-23T20:09:11.231Z,7.50
2018-04-23T20:11:39.542Z,7.70
2018-04-23T20:14:07.093Z,7.27
2018-04-23T20:16:34.643Z,7.80
2018-04-23T20:19:02.177Z,6.93
2018-04-23T20:21:30.496Z,6.70
2018-04-23T20:23:58.344Z,6.50
2018-04-23T20:26:26.430Z,6.70
2018-04-23T20:28:53.955Z,6.50
2018-04-23T20:31:22.280Z,6.77
2018-04-23T20:33:49.815Z,6.80
2018-04-23T20:36:17.373Z,6.83
2018-04-23T20:38:44.896Z,6.97
2018-04-23T20:41:13.227Z,6.93
2018-04-23T20:43:40.752Z,7.30
2018-04-23T20:46:09.069Z,7.40
2018-04-23T20:48:36.597Z,7.37
2018-04-23T20:51:04.919Z,6.73
2018-04-23T20:53:32.440Z,6.57
2018-04-23T20:55:59.999Z,7.90
2018-04-23T20:58:27.530Z,7.17
2018-04-23T21:00:55.083Z,6.50
2018-04-23T21:03:22.627Z,6.97
2018-04-23T21:05:50.354Z,7.40
2018-04-23T21:08:17.881Z,7.50
2018-04-23T21:10:46.205Z,6.30
2018-04-23T21:13:13.736Z,7.77
2018-04-23T21:15:42.113Z,6.93
2018-04-23T21:18:10.412Z,7.23
2018-04-23T21:20:37.956Z,6.67
2018-04-23T21:23:05.487Z,7.13
2018-04-23T21:25:33.805Z,7.00
2018-04-23T21:28:01.337Z,6.50
2018-04-23T21:30:29.652Z,6.50
2018-04-23T21:32:57.177Z,6.67
2018-04-23T21:35:25.492Z,6.40
2018-04-23T21:37:53.012Z,6.37
2018-04-23T21:40:21.330Z,7.20
2018-04-23T21:42:48.857Z,7.23
2018-04-23T21:45:17.176Z,6.50
2018-04-23T21:47:44.697Z,7.13
2018-04-23T21:50:12.258Z,8.37
2018-04-23T21:52:39.793Z,7.40
2018-04-23T21:55:07.350Z,7.30
2018-04-23T21:57:35.410Z,8.00
2018-04-23T22:00:02.972Z,7.00
2018-04-23T22:02:30.554Z,7.73
2018-04-23T22:04:58.082Z,7.30
2018-04-23T22:07:25.633Z,7.57
2018-04-23T22:09:53.193Z,7.23
2018-04-23T22:12:20.720Z,6.93
2018-04-23T22:14:48.273Z,6.97
2018-04-23T22:17:15.836Z,7.50
2018-04-23T22:19:43.369Z,7.23
2018-04-23T22:22:11.686Z,6.50
2018-04-23T22:24:39.213Z,6.80
2018-04-23T22:27:07.534Z,6.77
2018-04-23T22:29:35.078Z,6.70
2018-04-23T22:32:02.632Z,6.47
2018-04-23T22:34:30.160Z,6.03
2018-04-23T22:36:58.476Z,5.77
2018-04-23T22:39:26.022Z,6.10
2018-04-23T22:41:53.576Z,7.10
2018-04-23T22:44:21.869Z,6.47
2018-04-23T22:46:49.429Z,6.30
2018-04-23T22:49:16.951Z,6.33
2018-04-23T22:51:44.536Z,7.23
2018-04-23T22:54:12.829Z,6.63
2018-04-23T22:56:40.378Z,7.23
2018-04-23T22:59:07.909Z,7.27
2018-04-23T23:01:35.453Z,6.90
2018-04-23T23:04:02.990Z,8.50
2018-04-23T23:06:30.550Z,7.40
2018-04-23T23:08:58.081Z,8.57
2018-04-23T23:11:25.641Z,7.93
2018-04-23T23:13:53.164Z,7.93
2018-04-23T23:16:20.750Z,7.77
2018-04-23T23:18:49.023Z,8.03
2018-04-23T23:21:17.340Z,8.00
2018-04-23T23:23:44.861Z,8.67
2018-04-23T23:26:13.180Z,7.90
2018-04-23T23:28:40.713Z,7.37
2018-04-23T23:31:08.268Z,8.00
2018-04-23T23:33:35.794Z,7.87
2018-04-23T23:36:04.125Z,7.83
2018-04-23T23:38:31.665Z,9.30
2018-04-23T23:40:59.236Z,7.80
2018-04-23T23:43:26.767Z,8.43
2018-04-23T23:45:55.098Z,9.10
2018-04-23T23:48:22.620Z,8.30
2018-04-23T23:50:50.176Z,9.27
2018-04-23T23:53:17.709Z,8.80
2018-04-23T23:55:45.233Z,8.13
2018-04-23T23:58:12.782Z,8.50
